createdAt,value
2023-08-27T00:03:19.908Z,4.90
2023-08-27T00:08:12.010Z,4.57
2023-08-27T00:13:06.633Z,4.90
2023-08-27T00:17:58.364Z,4.32
2023-08-27T00:22:50.666Z,4.68
2023-08-27T00:27:42.397Z,4.78
2023-08-27T00:32:35.377Z,4.50
2023-08-27T00:37:28.508Z,4.38
2023-08-27T00:42:20.458Z,4.38
2023-08-27T00:47:14.619Z,4.20
2023-08-27T00:52:09.883Z,4.78
2023-08-27T00:57:04.633Z,5.15
2023-08-27T01:01:56.429Z,4.05
2023-08-27T01:06:48.316Z,5.63
2023-08-27T01:12:10.054Z,6.47
2023-08-27T01:17:04.517Z,6.13
2023-08-27T01:21:56.807Z,5.93
2023-08-27T01:27:06.113Z,5.93
2023-08-27T01:32:27.627Z,6.18
2023-08-27T01:37:20.423Z,5.85
2023-08-27T01:42:13.379Z,5.43
2023-08-27T01:47:06.955Z,5.65
2023-08-27T01:51:58.683Z,5.75
2023-08-27T01:56:50.382Z,5.43
2023-08-27T02:01:48.686Z,5.10
2023-08-27T02:06:40.419Z,5.18
2023-08-27T02:11:32.146Z,5.03
2023-08-27T02:16:24.431Z,4.65
2023-08-27T02:21:16.300Z,5.72
2023-08-27T02:26:08.019Z,5.13
2023-08-27T02:31:00.270Z,5.72
2023-08-27T02:35:52.379Z,4.70
2023-08-27T02:40:44.086Z,4.20
2023-08-27T02:45:35.843Z,3.78
2023-08-27T02:50:27.694Z,3.50
2023-08-27T02:55:19.435Z,2.40
2023-08-27T03:00:13.582Z,2.00
2023-08-27T03:05:05.981Z,1.83
2023-08-27T03:09:57.765Z,2.10
2023-08-27T03:14:49.503Z,1.95
2023-08-27T03:19:41.342Z,2.22
2023-08-27T03:24:33.684Z,2.45
2023-08-27T03:29:26.213Z,2.00
2023-08-27T03:34:17.916Z,2.65
2023-08-27T03:39:09.717Z,2.10
2023-08-27T03:44:01.444Z,2.00
2023-08-27T03:48:53.173Z,2.22
2023-08-27T03:53:44.866Z,2.58
2023-08-27T03:58:36.655Z,1.90
2023-08-27T04:03:28.473Z,2.00
2023-08-27T04:08:20.324Z,1.90
2023-08-27T04:13:12.020Z,1.85
2023-08-27T04:18:04.170Z,1.70
2023-08-27T04:22:55.896Z,1.90
2023-08-27T04:27:47.599Z,1.90
2023-08-27T04:32:39.379Z,1.52
2023-08-27T04:37:31.471Z,1.80
2023-08-27T04:42:23.185Z,2.17
2023-08-27T04:47:14.904Z,1.52
2023-08-27T04:52:12.844Z,1.75
2023-08-27T04:57:13.350Z,1.90
2023-08-27T05:02:05.111Z,1.60
2023-08-27T05:06:56.806Z,1.60
2023-08-27T05:11:48.521Z,1.55
2023-08-27T05:16:40.228Z,1.50
2023-08-27T05:21:31.931Z,1.98
2023-08-27T05:26:23.639Z,1.33
2023-08-27T05:31:15.396Z,1.83
2023-08-27T05:36:07.149Z,1.55
2023-08-27T05:40:59.947Z,1.40
2023-08-27T05:45:51.703Z,1.30
2023-08-27T05:50:45.428Z,1.30
2023-08-27T05:55:37.298Z,1.40
2023-08-27T06:00:29.006Z,1.25
2023-08-27T06:05:20.718Z,1.30
2023-08-27T06:10:12.443Z,1.33
2023-08-27T06:15:05.599Z,1.50
2023-08-27T06:19:57.409Z,1.30
2023-08-27T06:24:50.205Z,1.40
2023-08-27T06:29:45.787Z,1.50
2023-08-27T06:34:37.602Z,1.30
2023-08-27T06:39:29.306Z,1.58
2023-08-27T06:44:21.214Z,1.63
2023-08-27T06:49:12.945Z,1.55
2023-08-27T06:54:05.528Z,1.23
2023-08-27T06:58:57.356Z,1.40
2023-08-27T07:03:49.107Z,1.40
2023-08-27T07:08:40.845Z,1.15
2023-08-27T07:13:32.691Z,1.42
2023-08-27T07:18:24.643Z,1.70
2023-08-27T07:23:17.478Z,1.75
2023-08-27T07:28:10.954Z,1.60
2023-08-27T07:33:02.808Z,1.50
2023-08-27T07:37:54.551Z,1.40
2023-08-27T07:42:46.295Z,1.30
2023-08-27T07:47:38.124Z,1.30
2023-08-27T07:52:29.862Z,1.40
2023-08-27T07:57:21.575Z,1.38
2023-08-27T08:02:13.313Z,1.30
2023-08-27T08:07:05.012Z,1.50
2023-08-27T08:11:57.337Z,1.50
2023-08-27T08:16:53.494Z,1.40
2023-08-27T08:21:45.244Z,1.45
2023-08-27T08:26:37.072Z,1.35
2023-08-27T08:31:28.822Z,1.33
2023-08-27T08:36:20.592Z,1.23
2023-08-27T08:41:19.862Z,1.25
2023-08-27T08:46:19.302Z,1.58
2023-08-27T08:51:14.230Z,1.33
2023-08-27T08:56:12.484Z,1.25
2023-08-27T09:01:05.881Z,2.00
2023-08-27T09:05:58.758Z,1.70
2023-08-27T09:10:51.186Z,1.50
2023-08-27T09:15:42.918Z,1.40
2023-08-27T09:20:34.699Z,1.67
2023-08-27T09:25:28.217Z,1.30
2023-08-27T09:30:22.681Z,1.45
2023-08-27T09:35:14.538Z,1.40
2023-08-27T09:40:17.802Z,1.52
2023-08-27T09:45:09.900Z,1.30
2023-08-27T09:50:06.007Z,1.92
2023-08-27T09:54:57.749Z,1.30
2023-08-27T09:59:51.300Z,1.27
2023-08-27T10:04:55.254Z,1.38
2023-08-27T10:09:54.883Z,1.52
2023-08-27T10:14:48.283Z,1.60
2023-08-27T10:19:40.523Z,0.90
2023-08-27T10:24:34.164Z,1.20
2023-08-27T10:29:27.196Z,1.48
2023-08-27T10:34:19.368Z,1.45
2023-08-27T10:39:13.498Z,1.52
2023-08-27T10:44:07.068Z,1.60
2023-08-27T10:48:58.843Z,1.50
2023-08-27T10:53:50.507Z,1.48
2023-08-27T10:58:42.724Z,1.80
2023-08-27T11:03:59.221Z,1.48
2023-08-27T11:08:55.285Z,1.30
2023-08-27T11:13:47.686Z,1.20
2023-08-27T11:18:50.253Z,1.48
2023-08-27T11:23:46.469Z,1.42
2023-08-27T11:28:43.448Z,1.20
2023-08-27T11:33:36.933Z,1.10
2023-08-27T11:38:28.977Z,1.30
2023-08-27T11:43:26.802Z,1.17
2023-08-27T11:48:21.067Z,1.17
2023-08-27T11:53:14.275Z,1.30
2023-08-27T11:58:07.968Z,1.35
2023-08-27T12:03:00.448Z,1.42
2023-08-27T12:07:52.299Z,1.20
2023-08-27T12:12:45.697Z,1.30
2023-08-27T12:17:39.014Z,1.17
2023-08-27T12:22:30.824Z,1.35
2023-08-27T12:27:24.087Z,1.30
2023-08-27T12:32:19.217Z,1.25
2023-08-27T12:37:12.849Z,1.50
2023-08-27T12:42:06.557Z,1.38
2023-08-27T12:46:58.355Z,1.20
2023-08-27T12:51:50.095Z,1.52
2023-08-27T12:56:43.136Z,1.50
2023-08-27T13:01:35.487Z,1.60
2023-08-27T13:06:29.585Z,1.33
2023-08-27T13:11:21.308Z,1.58
2023-08-27T13:16:14.165Z,1.42
2023-08-27T13:21:06.004Z,1.75
2023-08-27T13:25:57.778Z,1.00
2023-08-27T13:30:49.544Z,1.25
2023-08-27T13:35:41.794Z,1.40
2023-08-27T13:40:34.222Z,1.30
2023-08-27T13:45:26.026Z,1.10
2023-08-27T13:50:19.235Z,0.75
2023-08-27T13:55:11.530Z,0.75
2023-08-27T14:00:05.125Z,0.80
2023-08-27T14:04:56.879Z,0.93
2023-08-27T14:09:48.848Z,1.10
2023-08-27T14:14:40.625Z,1.02
2023-08-27T14:19:32.478Z,1.10
2023-08-27T14:24:24.565Z,1.20
2023-08-27T14:29:16.281Z,0.80
2023-08-27T14:34:09.793Z,0.90
2023-08-27T14:39:02.428Z,1.05
2023-08-27T14:43:54.418Z,1.10
2023-08-27T14:48:46.284Z,0.95
2023-08-27T14:53:38.242Z,0.93
2023-08-27T14:58:30.160Z,0.88
2023-08-27T15:03:21.914Z,0.90
2023-08-27T15:08:13.652Z,1.13
2023-08-27T15:13:05.595Z,1.27
2023-08-27T15:17:57.423Z,1.10
2023-08-27T15:22:49.218Z,0.90
2023-08-27T15:27:40.957Z,1.10
2023-08-27T15:32:35.970Z,1.13
2023-08-27T15:37:28.292Z,1.40
2023-08-27T15:42:31.305Z,1.40
2023-08-27T15:47:24.278Z,1.40
2023-08-27T15:52:16.500Z,1.30
2023-08-27T15:57:08.245Z,1.35
2023-08-27T16:02:00.158Z,1.10
2023-08-27T16:06:52.048Z,0.90
2023-08-27T16:11:46.342Z,1.08
2023-08-27T16:16:38.131Z,1.25
2023-08-27T16:21:30.682Z,1.08
2023-08-27T16:26:23.752Z,1.02
2023-08-27T16:31:25.372Z,1.15
2023-08-27T16:36:17.696Z,1.08
2023-08-27T16:41:10.059Z,1.50
2023-08-27T16:46:02.044Z,1.42
2023-08-27T16:50:54.597Z,1.27
2023-08-27T16:55:47.444Z,1.05
2023-08-27T17:00:39.666Z,1.20
2023-08-27T17:05:31.554Z,1.58
2023-08-27T17:10:23.444Z,1.20
2023-08-27T17:15:15.575Z,1.40
2023-08-27T17:20:08.205Z,1.10
2023-08-27T17:25:00.291Z,1.20
2023-08-27T17:29:52.072Z,1.08
2023-08-27T17:34:43.814Z,1.00
2023-08-27T17:39:35.514Z,1.17
2023-08-27T17:44:27.248Z,1.27
2023-08-27T17:49:18.996Z,1.30
2023-08-27T17:54:10.714Z,1.40
2023-08-27T17:59:03.875Z,1.10
2023-08-27T18:03:55.596Z,1.10
2023-08-27T18:08:47.338Z,1.30
2023-08-27T18:13:39.277Z,1.10
2023-08-27T18:18:31.591Z,1.25
2023-08-27T18:23:23.524Z,1.00
2023-08-27T18:28:15.434Z,1.30
2023-08-27T18:33:08.157Z,1.42
2023-08-27T18:38:00.762Z,1.30
2023-08-27T18:42:54.194Z,2.13
2023-08-27T18:47:45.994Z,1.30
2023-08-27T18:52:37.728Z,1.35
2023-08-27T18:57:29.608Z,1.20
2023-08-27T19:02:21.700Z,0.90
2023-08-27T19:07:13.896Z,0.90
2023-08-27T19:12:06.219Z,1.00
2023-08-27T19:16:58.212Z,1.20
2023-08-27T19:21:49.969Z,1.00
2023-08-27T19:26:41.792Z,1.20
2023-08-27T19:31:45.869Z,1.15
2023-08-27T19:36:39.264Z,1.02
2023-08-27T19:41:30.959Z,1.20
2023-08-27T19:46:22.739Z,0.90
2023-08-27T19:51:14.459Z,1.30
2023-08-27T19:56:06.855Z,1.25
2023-08-27T20:01:04.024Z,1.02
2023-08-27T20:05:57.492Z,1.35
2023-08-27T20:10:49.220Z,1.20
2023-08-27T20:15:41.224Z,1.48
2023-08-27T20:20:34.348Z,1.40
2023-08-27T20:25:29.402Z,1.50
2023-08-27T20:30:23.966Z,1.70
2023-08-27T20:35:16.053Z,1.25
2023-08-27T20:40:14.971Z,1.35
2023-08-27T20:45:08.058Z,1.52
2023-08-27T20:49:59.925Z,1.42
2023-08-27T20:54:51.676Z,1.65
2023-08-27T20:59:43.425Z,1.60
2023-08-27T21:04:35.157Z,1.30
2023-08-27T21:09:26.975Z,1.52
2023-08-27T21:14:20.178Z,1.48
2023-08-27T21:19:12.313Z,1.58
2023-08-27T21:24:07.746Z,1.70
2023-08-27T21:28:59.458Z,1.70
2023-08-27T21:33:51.295Z,1.40
2023-08-27T21:38:43.037Z,1.20
2023-08-27T21:43:34.769Z,1.95
2023-08-27T21:48:26.475Z,2.53
2023-08-27T21:53:18.177Z,5.18
2023-08-27T21:58:09.879Z,1.83
2023-08-27T22:03:01.985Z,3.78
2023-08-27T22:07:53.908Z,1.42
2023-08-27T22:12:45.612Z,1.48
2023-08-27T22:17:37.425Z,1.48
2023-08-27T22:22:29.190Z,1.30
2023-08-27T22:27:20.952Z,1.40
2023-08-27T22:32:12.645Z,1.20
2023-08-27T22:37:04.406Z,1.40
2023-08-27T22:41:56.099Z,1.40
2023-08-27T22:46:47.854Z,1.42
2023-08-27T22:51:39.658Z,1.55
2023-08-27T22:56:31.433Z,1.60
2023-08-27T23:01:23.482Z,1.20
2023-08-27T23:06:15.217Z,1.52
2023-08-27T23:11:07.021Z,1.40
2023-08-27T23:15:59.556Z,1.40
2023-08-27T23:20:52.211Z,1.42
2023-08-27T23:25:44.141Z,1.50
2023-08-27T23:30:37.062Z,1.70
2023-08-27T23:35:29.156Z,1.60
2023-08-27T23:40:21.284Z,1.95
2023-08-27T23:45:13.006Z,1.52
2023-08-27T23:50:05.496Z,1.92
2023-08-27T23:54:57.243Z,1.50
2023-08-27T23:59:48.942Z,1.88
